Historyczne dane pomiarowe

Dodano dane terminowe – wersja testowa.

Dane z okresu 1951-2019

Wersja bazy: 1.34 [2019-03-16, lista zmian], aktualizacja planowana na 2019-04-15

Dane meteo z obszaru Polski uzyskane na podstawie danych udostępnionych przez Instytut Meteorologii i Gospodarki Wodnej – Państwowy Instytut Badawczy.

 

Wybierz Datę:    

       

TemperaturaWilgotnośćWiatrCiśnienieOpadyŚniegCzas trwania zjawisk
 Stacja t tx tn tng RH VA  wxwx mslp ppp RRR   cm mm wxwxwxwxwxwxwx
1999-08-14 14.4 19.0 10.7 9.7 75.8- 2.0 2.7---- 0.0------------
1999-08-13 12.9 16.1 11.5 11.5 94.8- 8.0 3.3---- 6.6------------
1999-08-12 15.4 20.4 10.7 9.3 87.8- 5.0 4.3---- 0.8------------
1999-08-11 16.3 20.0 12.9 12.6 86.3- 5.3 3.0---- 2.4------------
1999-08-10 18.1 24.4 14.3 12.9 86.3- 5.0 1.7---- 6.4------------
1999-08-09 20.8 29.7 16.5 14.5 76.3- 4.7 4.0---- 1.9------------
1999-08-08 19.3 23.9 16.0 15.5 87.0- 5.3 2.3---- 0.8------------
1999-08-07 20.0 26.6 14.1 12.1 72.8- 3.0 3.0---- 0.8------------
1999-08-06 19.8 27.9 13.6 12.0 61.3- 6.0 2.7---- 0.0------------
1999-08-05 19.2 25.5 11.2 8.6 45.8- 4.7 1.7---- 0.0------------
1999-08-04 19.5 26.4 11.6 8.1 51.5- 2.7 2.0---- 0.0------------
1999-08-03 19.5 25.4 12.2 8.8 57.3- 3.3 2.3---- 0.0------------
1999-08-02 20.1 25.1 14.0 11.2 46.3- 1.3 2.7---- 0.0------------
1999-08-01 19.6 24.5 12.7 9.8 46.5- 1.3 4.0---- 0.0------------
1999-07-31 19.7 25.4 11.9 8.5 53.8- 2.3 3.3---- 0.0------------
1999-07-30 18.1 24.8 10.2 6.8 63.8- 0.7 2.7---- 0.0------------
1999-07-29 17.8 24.1 9.3 7.2 54.5- 1.0 3.3---- 0.0------------
1999-07-28 16.8 22.3 9.7 7.4 56.3- 1.3 4.7---- 0.0------------
1999-07-27 15.2 20.5 9.2 8.5 54.8- 2.3 3.0---- 0.0------------
1999-07-26 17.0 20.9 14.5 12.5 78.0- 5.7 2.7---- 0.9------------
1999-07-25 19.3 22.7 15.1 14.8 77.8- 4.0 4.0---- 1.6------------
1999-07-24 16.3 20.4 12.3 11.0 84.0- 7.3 3.3---- 0.0------------
1999-07-23 16.6 22.2 11.4 10.1 74.5- 4.7 5.0---- 0.0------------
1999-07-22 16.7 20.4 13.3 12.7 58.3- 5.7 5.3---- 0.0------------
1999-07-21 20.6 25.9 16.3 14.9 75.5- 3.0 5.0---- 3.0------------
1999-07-20 21.7 30.9 15.2 13.0 59.0- 3.3 4.0---- 5.2------------
1999-07-19 20.5 27.7 12.0 10.6 60.0- 3.7 2.3---- 0.0------------
1999-07-18 19.4 25.9 13.2 12.0 67.8- 5.7 4.3---- 0.0------------
1999-07-17 16.4 21.0 11.5 8.7 70.8- 6.3 5.3---- 7.2------------
1999-07-16 15.7 19.3 10.9 8.9 64.3- 2.7 5.0---- 0.3------------
1999-07-15 15.8 18.4 14.2 13.9 75.3- 6.0 6.3---- 0.0------------
1999-07-14 19.6 24.4 17.2 16.3 80.3- 5.7 3.3---- 3.2------------
1999-07-13 22.6 27.9 18.5 15.8 63.3- 5.3 4.0---- 0.0------------
1999-07-12 22.2 27.2 14.2 11.0 46.8- 3.3 3.0---- 0.0------------
1999-07-11 20.9 26.5 12.9 9.6 49.8- 0.0 3.3---- 0.0------------
1999-07-10 18.7 23.4 12.4 10.2 52.0- 0.7 5.0---- 0.0------------
1999-07-09 16.8 20.8 13.4 12.7 59.8- 1.0 7.0---- 0.0------------
1999-07-08 17.5 20.9 14.5 13.8 76.5- 6.0 2.3---- 0.0------------
1999-07-07 16.9 20.8 14.3 14.1 81.5- 6.3 4.0---- 0.0------------
1999-07-06 22.0 29.2 17.4 16.7 78.5- 6.3 5.3---- 0.0------------
1999-07-05 24.6 32.5 15.2 13.9 51.0- 3.3 7.3---- 0.0------------
1999-07-04 20.6 27.6 15.1 14.2 75.5- 4.0 4.0---- 0.0------------
1999-07-03 19.1 23.9 13.2 11.2 71.3- 4.3 2.7---- 2.7------------
1999-07-02 16.6 21.0 12.6 12.5 80.3- 5.7 1.3---- 0.0------------
1999-07-01 18.7 22.2 15.8 13.9 80.5- 8.0 2.0---- 20.3------------
1999-06-30 19.5 24.5 11.7 10.1 49.5- 3.0 3.7---- 0.0------------
1999-06-29 17.2 22.5 12.2 11.7 64.5- 3.3 3.7---- 0.0------------
1999-06-28 19.5 26.4 11.5 11.5 70.0- 4.7 5.0---- 15.2------------
1999-06-27 19.0 25.9 11.3 8.9 62.3- 4.0 4.3---- 0.0------------
1999-06-26 12.7 17.0 6.3 3.7 63.3- 4.0 3.0---- 0.0------------
1999-06-25 12.1 15.2 9.1 8.5 79.5- 7.0 3.3---- 1.1------------
1999-06-24 11.9 17.0 6.3 3.6 70.0- 5.0 4.3---- 11.2------------
1999-06-23 11.0 12.9 7.6 6.9 81.0- 7.0 5.3---- 0.8------------
1999-06-22 10.5 13.1 8.3 8.3 74.0- 8.0 5.0---- 13.0------------
1999-06-21 15.1 20.4 11.2 11.2 82.5- 8.0 2.7---- 5.7------------
1999-06-20 17.8 22.7 13.0 12.1 60.3- 7.0 4.0---- 0.0------------
1999-06-19 17.9 24.1 13.6 13.6 81.0- 6.3 2.0---- 0.0------------
1999-06-18 17.2 22.9 9.7 7.4 69.8- 3.3 4.7---- 0.0------------
1999-06-17 16.5 22.4 9.3 7.2 63.5- 4.0 4.3---- 0.0------------
1999-06-16 16.4 20.4 10.2 7.6 70.8- 4.7 3.0---- 0.0------------
268.3 ms

 

Źródłem pochodzenia danych jest Instytut Meteorologii i Gospodarki Wodnej – Państwowy Instytut Badawczy. Dane Instytutu Meteorologii i Gospodarki Wodnej – Państwowego Instytutu Badawczego zostały przetworzone.

Dane źródłowe można odnaleźć na stronie https://dane.imgw.pl